Latest Weather Observations for Cobar

IDN60801

Issued at 8:32 am EST Friday 31 July 2015 (issued every 30 minutes, with the page automatically refreshed every 10 minutes)

About weather observations | Map of weather stations | Latest weather observations for NSW | Other Formats
Station Details ID: 048027 Name: COBAR MO Lat: -31.48 Lon: 145.83 Height: 260.0 m
Data from the previous 72 hours. | See also: Recent months at Cobar
Date/Time
EST
Temp
°C
App
Temp
°C
Dew
Point
Rel
Hum
%
Delta-T
°C
Wind Press
QNH
hPa
Press
MSL
hPa
Rain
since 9 am
mm
Dir
 
Spd
km/h
Gust
km/h
Spd
kts
Gust
kts
31/08:30am 10.4 6.9 1.1 52 3.9 WSW 9 13 5 7 1022.6 1022.9 0.0
31/08:00am 9.4 5.7 0.0 52 3.8 WNW 9 11 5 6 1022.4 1022.6 0.0
31/07:30am 8.2 4.5 -0.1 56 3.3 WNW 9 11 5 6 1022.0 1022.2 0.0
31/07:00am 7.8 4.1 -0.3 56 3.2 NW 9 11 5 6 1021.9 1022.1 0.0
31/06:30am 7.5 3.8 -0.1 58 3.0 NW 9 11 5 6 1021.5 1021.7 0.0
31/06:00am 7.5 3.8 -0.1 58 3.0 NW 9 11 5 6 1021.1 1021.3 0.0
31/05:30am 7.7 3.6 -0.1 58 3.1 NW 11 11 6 6 1020.9 1021.1 0.0
31/05:00am 7.7 4.1 0.5 60 2.9 NNW 9 11 5 6 1020.5 1020.7 0.0
31/04:30am 8.4 4.4 0.2 56 3.3 NW 11 13 6 7 1020.7 1020.9 0.0
31/04:00am 8.5 4.9 0.9 59 3.1 NNW 9 11 5 6 1020.8 1021.0 0.0
31/03:30am 8.6 5.1 1.1 59 3.1 NW 9 9 5 5 1021.0 1021.2 0.0
31/03:00am 9.3 5.7 0.8 55 3.5 NNW 9 9 5 5 1021.3 1021.5 0.0
31/02:30am 9.0 5.5 1.0 57 3.3 NNW 9 11 5 6 1021.4 1021.6 0.0
31/02:00am 8.5 4.5 0.6 57 3.2 NW 11 11 6 6 1021.6 1021.8 0.0
31/01:30am 8.6 5.0 0.8 58 3.2 NW 9 11 5 6 1021.8 1022.0 0.0
31/01:00am 8.7 5.1 0.9 58 3.2 NW 9 11 5 6 1021.9 1022.1 0.0
31/12:30am 8.5 4.9 0.6 57 3.2 NW 9 11 5 6 1021.9 1022.1 0.0
31/12:00am 8.8 5.2 0.4 55 3.4 NNW 9 11 5 6 1021.9 1022.1 0.0
 
Date/Time
EST
Temp
°C
App
Temp
°C
Dew
Point
Rel
Hum
%
Delta-T
°C
Wind Press
QNH
hPa
Press
MSL
hPa
Rain
since 9 am
mm
Dir
 
Spd
km/h
Gust
km/h
Spd
kts
Gust
kts
30/11:30pm 9.1 5.4 0.2 53 3.6 N 9 11 5 6 1021.7 1021.9 0.0
30/11:00pm 9.1 5.1 0.5 55 3.5 N 11 13 6 7 1021.8 1022.0 0.0
30/10:30pm 9.4 5.8 0.9 55 3.5 NNW 9 11 5 6 1022.3 1022.5 0.0
30/10:00pm 10.0 6.4 0.8 53 3.8 N 9 11 5 6 1022.3 1022.5 0.0
30/09:30pm 10.0 6.5 1.4 55 3.6 NNW 9 11 5 6 1022.4 1022.6 0.0
30/09:00pm 10.3 6.4 0.9 52 3.9 NW 11 13 6 7 1022.3 1022.5 0.0
30/08:30pm 10.0 5.7 1.1 54 3.7 NNW 13 17 7 9 1022.0 1022.2 0.0
30/08:00pm 10.9 6.5 0.6 49 4.3 N 13 17 7 9 1022.0 1022.2 0.0
30/07:30pm 11.0 7.4 0.7 49 4.3 NNW 9 11 5 6 1022.0 1022.2 0.0
30/07:00pm 11.2 7.2 0.4 47 4.5 N 11 13 6 7 1021.9 1022.1 0.0
30/06:32pm 11.5 7.8 0.2 45 4.7 NNW 9 11 5 6 1022.0 1022.2 0.0
30/06:30pm 11.6 8.3 0.3 46 4.7 NNW 7 9 4 5 1022.1 1022.3 0.0
30/06:14pm 12.3 9.2 1.6 48 4.6 NW 7 9 4 5 1022.2 1022.4 0.0
30/06:00pm 12.7 9.2 1.0 45 5.0 N 9 11 5 6 1022.2 1022.4 0.0
30/05:30pm 13.6 10.1 1.1 42 5.4 NW 9 11 5 6 1022.2 1022.4 0.0
30/05:00pm 14.5 9.6 -0.8 35 6.4 NNW 15 20 8 11 1022.0 1022.2 0.0
30/04:30pm 15.6 10.6 -1.1 32 7.0 NNW 15 20 8 11 1022.0 1022.2 0.0
30/04:00pm 15.6 11.1 -0.4 33 6.8 NNW 13 20 7 11 1022.0 1022.2 0.0
30/03:30pm 15.8 10.9 -0.4 33 6.9 NNW 15 22 8 12 1022.1 1022.3 0.0
30/03:00pm 15.9 11.1 0.5 35 6.7 NNW 15 20 8 11 1022.5 1022.8 0.0
30/02:30pm 15.8 11.2 1.3 37 6.4 N 15 20 8 11 1023.0 1023.3 0.0
30/02:00pm 15.8 10.7 0.7 36 6.6 N 17 24 9 13 1023.2 1023.5 0.0
30/01:30pm 15.8 10.7 0.7 36 6.6 NNW 17 24 9 13 1024.0 1024.3 0.0
30/01:00pm 15.4 11.1 1.3 38 6.2 WNW 13 19 7 10 1024.7 1024.9 0.0
30/12:30pm 14.7 10.0 0.8 38 6.0 NNW 15 24 8 13 1024.9 1025.1 0.0
30/12:00pm 14.2 8.8 1.0 40 5.7 NNW 19 24 10 13 1025.3 1025.5 0.0
30/11:30am 13.8 8.5 1.7 44 5.3 N 19 26 10 14 1025.9 1026.2 0.0
30/11:00am 13.3 8.0 1.9 46 5.0 N 19 28 10 15 1026.3 1026.6 0.0
30/10:30am 12.2 6.6 1.5 48 4.6 N 20 30 11 16 1026.8 1027.1 0.0
30/10:00am 11.8 7.5 3.0 55 3.9 N 15 20 8 11 1026.3 1026.6 0.0
30/09:30am 10.6 6.8 3.9 63 3.0 N 13 17 7 9 1026.7 1027.0 0.0
30/09:00am 8.7 4.8 3.4 69 2.3 N 13 19 7 10 1026.7 1027.0 0.0
30/08:30am 7.2 3.6 2.9 74 1.8 NNE 11 13 6 7 1026.5 1026.8 0.0
30/08:00am 5.0 1.2 2.0 81 1.2 NNE 11 13 6 7 1026.6 1026.9 0.0
30/07:30am 3.5 -0.3 1.5 87 0.8 NNE 11 13 6 7 1026.4 1026.7 0.0
30/07:00am 3.1 -1.2 1.0 86 0.8 NNE 13 15 7 8 1026.3 1026.6 0.0
30/06:30am 3.6 0.1 1.3 85 0.9 NNE 9 11 5 6 1026.2 1026.5 0.0
30/06:00am 3.5 -0.3 1.5 87 0.8 NNE 11 13 6 7 1026.0 1026.3 0.0
30/05:30am 3.8 -0.1 1.2 83 1.0 NNE 11 15 6 8 1025.7 1026.0 0.0
30/05:00am 3.7 -0.2 1.4 85 0.9 NNE 11 13 6 7 1025.9 1026.2 0.0
30/04:30am 4.6 0.8 1.6 81 1.2 NNE 11 13 6 7 1026.3 1026.6 0.0
30/04:00am 4.4 0.5 1.4 81 1.2 NNE 11 13 6 7 1026.5 1026.8 0.0
30/03:30am 4.6 0.3 1.3 79 1.3 NE 13 13 7 7 1026.6 1026.9 0.0
30/03:00am 4.8 1.4 1.8 81 1.2 NNE 9 11 5 6 1026.8 1027.1 0.0
30/02:30am 5.2 1.3 1.4 76 1.5 NNE 11 13 6 7 1027.1 1027.4 0.0
30/02:00am 5.6 2.2 1.6 75 1.6 NNE 9 11 5 6 1027.6 1027.9 0.0
30/01:30am 4.8 1.4 1.8 81 1.2 ENE 9 9 5 5 1027.8 1028.1 0.0
30/01:00am 6.3 2.9 1.9 73 1.8 NNE 9 11 5 6 1028.1 1028.4 0.0
30/12:30am 6.4 2.6 2.0 73 1.8 NE 11 13 6 7 1028.0 1028.3 0.0
30/12:00am 6.7 2.5 1.8 71 2.0 NNE 13 15 7 8 1028.4 1028.6 0.0
 
Date/Time
EST
Temp
°C
App
Temp
°C
Dew
Point
Rel
Hum
%
Delta-T
°C
Wind Press
QNH
hPa
Press
MSL
hPa
Rain
since 9 am
mm
Dir
 
Spd
km/h
Gust
km/h
Spd
kts
Gust
kts
29/11:30pm 6.5 2.0 2.4 75 1.7 NE 15 17 8 9 1028.4 1028.6 0.0
29/11:00pm 6.8 3.2 3.0 77 1.6 E 11 13 6 7 1028.6 1028.8 0.0
29/10:30pm 7.7 5.2 3.5 75 1.8 SE 6 7 3 4 1029.1 1029.4 0.0
29/10:00pm 8.5 5.4 3.4 70 2.2 SE 9 11 5 6 1028.7 1028.9 0.0
29/09:30pm 8.5 5.9 4.2 74 1.9 SSE 7 9 4 5 1029.2 1029.5 0.0
29/09:00pm 8.8 5.8 4.0 72 2.1 SSE 9 9 5 5 1029.0 1029.3 0.0
29/08:30pm 9.9 7.1 3.3 63 2.9 S 7 9 4 5 1029.3 1029.6 0.0
29/08:00pm 8.8 6.3 4.0 72 2.1 SW 6 7 3 4 1029.5 1029.8 0.0
29/07:30pm 9.4 7.6 3.7 67 2.5 ESE 2 9 1 5 1029.0 1029.3 0.0
29/07:00pm 8.9 7.2 3.9 71 2.2 SSW 2 6 1 3 1029.0 1029.3 0.0
29/06:30pm 11.7 9.1 3.4 56 3.7 SSW 6 7 3 4 1028.8 1029.0 0.0
29/06:00pm 11.4 8.3 3.8 59 3.4 SW 9 11 5 6 1028.9 1029.2 0.0
29/05:30pm 12.5 11.1 3.6 54 4.0 CALM 0 0 0 0 1028.8 1029.0 0.0
29/05:00pm 13.6 10.7 1.4 43 5.3 SSW 6 6 3 3 1028.7 1028.9 0.0
29/04:30pm 14.0 11.2 2.3 45 5.2 WSW 6 9 3 5 1028.9 1029.2 0.0
29/04:00pm 14.2 11.1 1.3 41 5.6 NNE 7 9 4 5 1028.8 1029.0 0.0
29/03:30pm 15.0 11.6 1.6 40 5.9 ENE 9 13 5 7 1029.0 1029.3 0.0
29/03:00pm 15.0 12.0 2.2 42 5.7 NE 7 15 4 8 1029.1 1029.4 0.0
29/02:30pm 14.4 11.5 1.3 41 5.7 N 6 13 3 7 1029.6 1029.9 0.0
29/02:00pm 14.3 12.6 2.1 43 5.4 CALM 0 4 0 2 1029.7 1030.0 0.0
29/01:30pm 13.6 10.0 3.2 49 4.7 NE 11 19 6 10 1029.9 1030.2 0.0
29/01:00pm 13.6 10.4 3.1 49 4.7 NE 9 13 5 7 1030.1 1030.4 0.0
29/12:30pm 13.0 9.9 3.4 52 4.4 NE 9 13 5 7 1031.3 1031.6 0.0
29/12:00pm 12.6 9.0 3.2 52 4.2 E 11 20 6 11 1031.8 1032.1 0.0
29/11:30am 12.4 9.7 3.7 55 4.0 E 7 15 4 8 1032.8 1033.1 0.0
29/11:00am 11.5 8.4 3.7 58 3.5 SE 9 13 5 7 1033.1 1033.4 0.0
29/10:30am 10.8 7.3 3.3 60 3.3 SE 11 17 6 9 1033.4 1033.7 0.0
29/10:00am 9.9 6.1 3.8 66 2.7 ESE 13 17 7 9 1033.2 1033.5 0.0
29/09:30am 8.8 5.0 4.0 72 2.1 ESE 13 17 7 9 1033.5 1033.8 0.0
29/09:00am 8.2 4.8 4.1 75 1.8 ESE 11 15 6 8 1033.5 1033.8 0.0
29/08:30am 6.1 2.9 3.2 82 1.2 ESE 9 11 5 6 1033.5 1033.8 0.0
29/08:00am 4.4 1.1 2.4 87 0.8 SE 9 11 5 6 1033.5 1033.8 0.0
29/07:30am 2.7 -0.8 1.4 91 0.5 ESE 9 9 5 5 1033.1 1033.4 0.0
29/07:00am 2.2 -0.7 1.2 93 0.4 SSE 6 7 3 4 1033.1 1033.4 0.0
29/06:30am 2.7 -0.2 1.7 93 0.4 SSE 6 7 3 4 1033.0 1033.3 0.0
29/06:00am 2.5 -0.4 1.5 93 0.4 SSE 6 7 3 4 1032.8 1033.1 0.0
29/05:30am 2.9 -0.5 1.6 91 0.5 SSE 9 9 5 5 1032.7 1033.0 0.0
29/05:00am 2.6 -0.8 1.6 93 0.4 S 9 9 5 5 1032.7 1033.0 0.0
29/04:30am 3.4 0.5 1.6 88 0.7 S 6 7 3 4 1032.8 1033.1 0.0
29/04:00am 3.5 0.6 1.7 88 0.7 SSE 6 7 3 4 1032.7 1033.0 0.0
29/03:30am 3.9 0.8 1.6 85 0.9 ESE 7 7 4 4 1032.7 1033.0 0.0
29/03:00am 3.3 0.3 1.8 90 0.6 ESE 7 9 4 5 1032.5 1032.8 0.0
29/02:30am 3.4 0.3 1.6 88 0.7 ESE 7 9 4 5 1032.8 1033.1 0.0
29/02:00am 5.0 2.0 2.0 81 1.2 SSE 7 11 4 6 1033.1 1033.4 0.0
29/01:30am 5.0 1.6 2.0 81 1.2 SSE 9 11 5 6 1033.3 1033.6 0.0
29/01:00am 4.7 1.7 2.2 84 1.0 SE 7 7 4 4 1033.4 1033.7 0.0
29/12:30am 4.7 1.7 2.0 83 1.1 SE 7 9 4 5 1033.4 1033.7 0.0
29/12:00am 4.6 1.7 2.4 86 0.9 SE 7 9 4 5 1033.6 1033.9 0.0
 
Date/Time
EST
Temp
°C
App
Temp
°C
Dew
Point
Rel
Hum
%
Delta-T
°C
Wind Press
QNH
hPa
Press
MSL
hPa
Rain
since 9 am
mm
Dir
 
Spd
km/h
Gust
km/h
Spd
kts
Gust
kts
28/11:30pm 5.6 2.6 2.2 79 1.4 S 7 9 4 5 1034.3 1034.6 0.0
28/11:00pm 5.7 2.7 2.3 79 1.4 S 7 11 4 6 1034.3 1034.6 0.0
28/10:30pm 6.7 3.4 2.3 73 1.8 S 9 11 5 6 1034.1 1034.4 0.0
28/10:00pm 7.5 4.1 1.9 67 2.3 SSE 9 9 5 5 1033.7 1034.0 0.0
28/09:30pm 7.5 4.5 2.2 69 2.2 SSE 7 11 4 6 1033.8 1034.1 0.0
28/09:00pm 8.0 4.6 2.0 66 2.5 SSE 9 11 5 6 1033.9 1034.2 0.0
28/08:30pm 8.0 5.1 2.5 68 2.3 SSE 7 9 4 5 1033.8 1034.1 0.0
28/08:00pm 7.7 5.0 2.4 69 2.2 SE 6 7 3 4 1033.8 1034.1 0.0
28/07:30pm 8.7 5.7 2.3 64 2.7 S 7 9 4 5 1033.7 1034.0 0.0
28/07:00pm 9.0 5.7 2.4 63 2.8 S 9 11 5 6 1033.5 1033.8 0.0
28/06:30pm 9.5 6.6 2.5 61 3.0 S 7 9 4 5 1033.4 1033.7 0.0
28/06:00pm 10.1 7.1 2.1 57 3.4 S 7 11 4 6 1033.2 1033.5 0.0
28/05:30pm 11.1 7.6 1.4 51 4.1 S 9 15 5 8 1033.1 1033.4 0.0
28/05:00pm 11.8 8.0 1.5 49 4.4 S 11 19 6 10 1033.0 1033.3 0.0
28/04:30pm 12.3 8.4 1.3 47 4.7 S 11 19 6 10 1032.9 1033.2 0.0
28/04:00pm 12.4 8.1 1.1 46 4.8 SSE 13 19 7 10 1032.7 1033.0 0.0
28/03:30pm 12.4 8.1 1.1 46 4.8 S 13 19 7 10 1033.0 1033.3 0.0
28/03:00pm 12.7 8.9 1.5 46 4.8 SSE 11 20 6 11 1033.0 1033.3 0.0
28/02:30pm 11.8 7.4 0.5 46 4.8 SSE 13 20 7 11 1033.2 1033.5 0.0
28/02:00pm 12.2 8.0 1.7 48 4.5 SSE 13 24 7 13 1033.5 1033.8 0.0
28/01:30pm 11.9 7.3 1.6 49 4.4 S 15 20 8 11 1033.8 1034.1 0.0
28/01:00pm 11.9 7.8 2.5 52 4.1 S 13 20 7 11 1034.4 1034.7 0.0
28/12:30pm 11.4 7.7 2.4 54 3.9 S 11 19 6 10 1034.9 1035.2 0.0
28/12:00pm 11.1 6.4 1.1 50 4.2 S 15 22 8 12 1035.7 1036.1 0.0
28/11:30am 10.6 5.9 1.0 51 4.0 S 15 20 8 11 1036.5 1036.8 0.0
28/11:00am 10.4 5.7 1.0 52 3.9 S 15 22 8 12 1036.8 1037.1 0.0
28/10:30am 10.3 6.0 1.2 53 3.8 S 13 20 7 11 1036.8 1037.1 0.0
28/10:00am 9.6 5.8 1.7 58 3.3 S 11 19 6 10 1036.6 1036.9 0.0
28/09:30am 7.9 4.5 2.1 67 2.4 S 9 13 5 7 1036.4 1036.7 0.0
28/09:00am 6.9 3.4 1.2 67 2.3 S 9 13 5 7 1036.2 1036.6 0.0

Other Formats:

Comma delimited format used in spreadsheet applications
http://www.bom.gov.au/fwo/IDN60801/IDN60801.94711.axf

JavaScript Object Notation format (JSON) in row-major order
http://www.bom.gov.au/fwo/IDN60801/IDN60801.94711.json